Time;durP1;ratioP1;P1;durP2;ratioP2;P2;SDS_P1;SDS_P2;PMS_P1;PMS_P2;Temp;Humidity;BMP_temperature;BMP_pressure;BME280_temperature;BME280_humidity;BME280_pressure;Samples;Min_cycle;Max_cycle;Signal;HPM_P1;HPM_P2
2023/02/20 00:01:01;;;;;;;;;;;15.00;84.60;;;;;;4224697;28;19926;-66
2023/02/20 00:03:44;;;;;;;;;;;15.00;84.60;;;;;;4208885;28;19993;-66
2023/02/20 00:06:25;;;;;;;;;;;15.00;84.60;;;;;;4210026;28;19930;-66
2023/02/20 00:09:06;;;;;;;;;;;15.00;84.50;;;;;;4222841;28;19927;-65
2023/02/20 00:11:46;;;;;;;;;;;15.00;85.30;;;;;;4228576;27;19927;-66
2023/02/20 00:14:29;;;;;;;;;;;14.90;84.40;;;;;;4228635;27;20381;-65
2023/02/20 00:17:10;;;;;;;;;;;14.90;84.50;;;;;;4211818;28;20655;-65
2023/02/20 00:19:51;;;;;;;;;;;14.90;84.60;;;;;;4211413;28;19930;-66
2023/02/20 00:22:32;;;;;;;;;;;14.90;84.60;;;;;;4211424;28;19927;-66
2023/02/20 00:25:15;;;;;;;;;;;14.90;84.50;;;;;;4224053;27;20389;-66
2023/02/20 00:27:56;;;;;;;;;;;14.90;85.30;;;;;;4227141;27;19927;-66
2023/02/20 00:30:37;;;;;;;;;;;14.90;84.40;;;;;;4228212;27;19927;-66
2023/02/20 00:33:17;;;;;;;;;;;14.90;84.40;;;;;;4226519;27;20066;-65
2023/02/20 00:36:03;;;;;;;;;;;14.80;85.20;;;;;;4228708;27;20275;-66
2023/02/20 00:38:44;;;;;;;;;;;14.80;84.40;;;;;;4228118;27;20432;-66
2023/02/20 00:41:24;;;;;;;;;;;14.80;85.30;;;;;;4220721;28;19926;-66
2023/02/20 00:44:05;;;;;;;;;;;14.80;84.30;;;;;;4228195;27;19931;-66
2023/02/20 00:46:46;;;;;;;;;;;14.80;84.30;;;;;;4227015;27;19926;-65
2023/02/20 00:49:26;;;;;;;;;;;14.80;84.20;;;;;;4226821;28;19931;-66
2023/02/20 00:52:22;;;;;;;;;;;14.80;84.20;;;;;;4227687;27;19931;-67
2023/02/20 00:55:03;;;;;;;;;;;14.80;85.10;;;;;;4209718;28;20306;-66
2023/02/20 00:57:43;;;;;;;;;;;14.80;84.40;;;;;;4210950;28;20306;-66
2023/02/20 01:00:25;;;;;;;;;;;14.80;84.50;;;;;;4211041;28;19927;-66
2023/02/20 01:03:06;;;;;;;;;;;14.80;84.50;;;;;;4225804;27;19976;-66
2023/02/20 01:05:47;;;;;;;;;;;14.80;84.50;;;;;;4211051;28;19927;-65
2023/02/20 01:08:29;;;;;;;;;;;14.80;84.40;;;;;;4212689;27;20339;-66
2023/02/20 01:11:10;;;;;;;;;;;14.70;84.30;;;;;;4210850;28;20439;-67
2023/02/20 01:13:50;;;;;;;;;;;14.70;84.30;;;;;;4210748;28;19927;-66
2023/02/20 01:16:31;;;;;;;;;;;14.70;84.30;;;;;;4211045;28;19926;-67
2023/02/20 01:19:12;;;;;;;;;;;14.70;84.30;;;;;;4211065;28;20362;-66
2023/02/20 01:21:53;;;;;;;;;;;14.70;84.30;;;;;;4210694;28;19931;-67
2023/02/20 01:24:34;;;;;;;;;;;14.70;84.20;;;;;;4222629;28;19927;-67
2023/02/20 01:27:15;;;;;;;;;;;14.80;84.10;;;;;;4211334;28;20058;-68
2023/02/20 01:29:57;;;;;;;;;;;14.90;83.60;;;;;;4210671;28;20456;-67
2023/02/20 01:32:38;;;;;;;;;;;14.90;83.40;;;;;;4220939;28;19926;-66
2023/02/20 01:35:18;;;;;;;;;;;15.00;83.80;;;;;;4227751;27;19988;-67
2023/02/20 01:37:59;;;;;;;;;;;15.00;82.80;;;;;;4227382;28;20377;-67
2023/02/20 01:40:46;;;;;;;;;;;15.10;82.70;;;;;;4226989;27;19930;-66
2023/02/20 01:43:27;;;;;;;;;;;15.10;82.40;;;;;;4227134;27;20405;-67
2023/02/20 01:46:26;;;;;;;;;;;15.10;82.20;;;;;;4203161;28;20008;-67
2023/02/20 01:49:10;;;;;;;;;;;15.10;82.20;;;;;;4211515;28;20595;-66
2023/02/20 01:51:53;;;;;;;;;;;15.20;82.20;;;;;;4225810;27;19926;-67
2023/02/20 01:54:36;;;;;;;;;;;15.30;81.70;;;;;;4208458;28;19993;-66
2023/02/20 01:57:20;;;;;;;;;;;15.30;81.30;;;;;;4207679;28;19997;-67
2023/02/20 02:00:02;;;;;;;;;;;15.40;80.80;;;;;;4221724;28;19930;-66
2023/02/20 02:02:55;;;;;;;;;;;15.50;80.50;;;;;;4226363;27;19931;-67
2023/02/20 02:05:37;;;;;;;;;;;15.60;80.20;;;;;;4226495;27;19930;-67
2023/02/20 02:08:19;;;;;;;;;;;15.60;80.00;;;;;;4225408;28;19931;-67
2023/02/20 02:11:01;;;;;;;;;;;15.60;79.80;;;;;;4223525;28;19985;-66
2023/02/20 02:13:44;;;;;;;;;;;15.60;79.60;;;;;;4207731;28;19927;-67
2023/02/20 02:16:29;;;;;;;;;;;15.60;79.70;;;;;;4210009;28;20049;-66
2023/02/20 02:19:17;;;;;;;;;;;15.60;79.60;;;;;;4212299;28;20057;-66
2023/02/20 02:22:11;;;;;;;;;;;15.60;79.60;;;;;;4209232;28;20424;-66
2023/02/20 02:25:19;;;;;;;;;;;15.60;79.50;;;;;;4209461;28;19972;-66
2023/02/20 02:28:20;;;;;;;;;;;15.60;79.30;;;;;;4200664;28;20389;-66
2023/02/20 02:31:20;;;;;;;;;;;15.50;79.50;;;;;;4208417;28;20385;-66
2023/02/20 02:34:24;;;;;;;;;;;15.60;79.30;;;;;;4209169;28;19927;-67
2023/02/20 02:37:12;;;;;;;;;;;15.60;79.00;;;;;;4209446;28;20347;-66
2023/02/20 02:39:59;;;;;;;;;;;15.60;78.80;;;;;;4225203;27;20393;-66
2023/02/20 02:42:43;;;;;;;;;;;15.70;78.60;;;;;;4224937;28;19958;-66
2023/02/20 02:45:28;;;;;;;;;;;15.60;78.40;;;;;;4224747;28;20467;-66
2023/02/20 02:48:14;;;;;;;;;;;15.60;78.50;;;;;;4208585;28;19956;-66
2023/02/20 02:50:57;;;;;;;;;;;15.70;78.50;;;;;;4208438;28;19993;-66
2023/02/20 02:53:38;;;;;;;;;;;15.70;78.40;;;;;;4204154;28;19926;-66
2023/02/20 02:56:22;;;;;;;;;;;15.70;78.40;;;;;;4195955;28;20562;-66
2023/02/20 02:59:02;;;;;;;;;;;15.80;78.20;;;;;;4224070;28;20600;-66
2023/02/20 03:01:47;;;;;;;;;;;15.80;78.00;;;;;;4209534;28;20393;-65
2023/02/20 03:04:28;;;;;;;;;;;15.90;78.50;;;;;;4208975;28;19927;-67
2023/02/20 03:07:10;;;;;;;;;;;15.90;77.20;;;;;;4219788;28;19926;-67
2023/02/20 03:09:54;;;;;;;;;;;15.90;77.20;;;;;;4225688;28;19930;-66
2023/02/20 03:12:38;;;;;;;;;;;16.00;76.90;;;;;;4223504;28;19943;-66
2023/02/20 03:15:31;;;;;;;;;;;16.00;76.80;;;;;;4224726;28;20427;-66
2023/02/20 03:18:19;;;;;;;;;;;16.00;76.70;;;;;;4208767;28;19942;-66
2023/02/20 03:21:03;;;;;;;;;;;16.00;76.40;;;;;;4192458;28;19969;-66
2023/02/20 03:23:45;;;;;;;;;;;16.00;76.40;;;;;;4191438;28;19989;-65
2023/02/20 03:26:30;;;;;;;;;;;15.90;76.50;;;;;;4205694;28;19931;-67
2023/02/20 03:29:12;;;;;;;;;;;15.90;76.70;;;;;;4207814;28;19930;-65
2023/02/20 03:43:55;;;;;;;;;;;15.90;76.80;;;;;;4219210;28;19927;-66
2023/02/20 03:46:38;;;;;;;;;;;15.90;77.30;;;;;;4211376;28;20472;-67
2023/02/20 03:49:20;;;;;;;;;;;16.00;76.90;;;;;;4212260;28;19927;-66
2023/02/20 03:52:01;;;;;;;;;;;16.00;76.80;;;;;;4220384;28;19931;-66
2023/02/20 03:54:53;;;;;;;;;;;16.10;76.50;;;;;;4210988;28;19935;-66
2023/02/20 03:57:36;;;;;;;;;;;16.10;76.50;;;;;;4211238;28;19927;-66
2023/02/20 04:00:20;;;;;;;;;;;16.10;76.30;;;;;;4212212;28;19927;-66
2023/02/20 04:03:07;;;;;;;;;;;16.20;76.40;;;;;;4216717;28;19956;-66
2023/02/20 04:05:56;;;;;;;;;;;16.20;76.20;;;;;;4227901;28;19927;-66
2023/02/20 04:08:46;;;;;;;;;;;16.20;75.90;;;;;;4227241;28;19930;-66
2023/02/20 04:11:30;;;;;;;;;;;16.20;75.90;;;;;;4214694;28;19931;-66
2023/02/20 04:14:12;;;;;;;;;;;16.20;75.80;;;;;;4227604;28;19930;-66
2023/02/20 04:16:56;;;;;;;;;;;16.20;75.80;;;;;;4211501;28;20370;-66
2023/02/20 04:19:37;;;;;;;;;;;16.20;76.00;;;;;;4195100;28;19927;-66
2023/02/20 04:22:22;;;;;;;;;;;16.10;76.40;;;;;;4193922;28;20077;-66
2023/02/20 04:25:06;;;;;;;;;;;16.10;76.50;;;;;;4197465;28;19943;-66
2023/02/20 04:27:47;;;;;;;;;;;16.10;77.20;;;;;;4217182;28;19930;-66
2023/02/20 04:30:28;;;;;;;;;;;16.20;75.90;;;;;;4216771;28;19934;-65
2023/02/20 04:33:12;;;;;;;;;;;16.20;75.50;;;;;;4227584;28;20263;-66
2023/02/20 04:35:53;;;;;;;;;;;16.20;75.40;;;;;;4227319;27;19927;-65
2023/02/20 04:38:34;;;;;;;;;;;16.20;75.50;;;;;;4227098;28;20447;-66
2023/02/20 04:41:17;;;;;;;;;;;16.20;76.60;;;;;;4220780;28;20021;-66
2023/02/20 04:46:53;;;;;;;;;;;16.20;75.80;;;;;;4210121;28;19994;-66
2023/02/20 04:49:35;;;;;;;;;;;16.20;75.40;;;;;;4209500;28;19926;-65
2023/02/20 04:52:18;;;;;;;;;;;16.30;75.30;;;;;;4226673;27;20373;-66
2023/02/20 04:54:59;;;;;;;;;;;16.20;75.30;;;;;;4211178;28;20072;-66
2023/02/20 04:57:40;;;;;;;;;;;16.20;75.50;;;;;;4225669;28;19965;-65
2023/02/20 05:00:22;;;;;;;;;;;16.30;75.30;;;;;;4226347;28;19946;-66
2023/02/20 05:03:02;;;;;;;;;;;16.30;75.20;;;;;;4216868;28;19938;-67
2023/02/20 05:05:44;;;;;;;;;;;16.30;75.20;;;;;;4211420;28;19931;-66
2023/02/20 05:08:25;;;;;;;;;;;16.30;75.00;;;;;;4210209;28;20041;-66
2023/02/20 05:11:05;;;;;;;;;;;16.30;75.20;;;;;;4210824;28;19927;-67
2023/02/20 05:13:46;;;;;;;;;;;16.30;76.20;;;;;;4210834;28;19927;-66
2023/02/20 05:16:27;;;;;;;;;;;16.30;75.20;;;;;;4198476;28;19930;-66
2023/02/20 05:19:08;;;;;;;;;;;16.30;74.90;;;;;;4211197;28;19979;-66
2023/02/20 05:24:48;;;;;;;;;;;16.30;76.00;;;;;;4210501;28;19927;-66
2023/02/20 05:27:29;;;;;;;;;;;16.30;75.00;;;;;;4227050;27;19973;-66
2023/02/20 05:30:10;;;;;;;;;;;16.30;75.30;;;;;;4227713;28;19953;-65
2023/02/20 05:32:51;;;;;;;;;;;16.30;75.30;;;;;;4227426;28;19938;-65
2023/02/20 05:35:32;;;;;;;;;;;16.30;75.20;;;;;;4227754;27;20033;-67
2023/02/20 05:38:18;;;;;;;;;;;16.30;75.00;;;;;;4211130;28;19926;-66
2023/02/20 05:40:58;;;;;;;;;;;16.30;75.80;;;;;;4226956;28;19931;-66
2023/02/20 05:43:38;;;;;;;;;;;16.30;74.90;;;;;;4227471;28;19931;-66
2023/02/20 05:46:19;;;;;;;;;;;16.30;74.80;;;;;;4227115;27;19935;-67
2023/02/20 05:48:59;;;;;;;;;;;16.30;74.90;;;;;;4210144;28;19931;-66
2023/02/20 05:51:40;;;;;;;;;;;16.30;74.80;;;;;;4207605;28;19927;-66
2023/02/20 05:54:22;;;;;;;;;;;16.30;74.80;;;;;;4227231;28;19946;-66
2023/02/20 05:57:03;;;;;;;;;;;16.20;74.90;;;;;;4227511;27;20298;-66
2023/02/20 05:59:43;;;;;;;;;;;16.10;75.10;;;;;;4227349;28;19931;-67
2023/02/20 06:02:24;;;;;;;;;;;16.10;75.40;;;;;;4213825;28;19930;-67
2023/02/20 06:05:06;;;;;;;;;;;16.00;76.40;;;;;;4226626;28;19946;-67
2023/02/20 06:07:47;;;;;;;;;;;16.00;75.90;;;;;;4226050;28;20401;-67
2023/02/20 06:10:29;;;;;;;;;;;16.00;76.10;;;;;;4226432;27;20045;-67
2023/02/20 06:13:09;;;;;;;;;;;16.10;75.80;;;;;;4226719;27;19927;-66
2023/02/20 06:15:50;;;;;;;;;;;16.20;75.20;;;;;;4226864;27;20016;-66
2023/02/20 06:18:31;;;;;;;;;;;16.30;74.60;;;;;;4209697;28;19929;-67
2023/02/20 06:21:11;;;;;;;;;;;16.30;74.60;;;;;;4209659;28;19984;-64
2023/02/20 06:23:52;;;;;;;;;;;16.30;75.40;;;;;;4224467;28;20060;-66
2023/02/20 06:26:38;;;;;;;;;;;16.40;74.20;;;;;;4211341;28;19927;-66
2023/02/20 06:29:19;;;;;;;;;;;16.50;74.00;;;;;;4226532;27;20389;-65
2023/02/20 06:32:00;;;;;;;;;;;16.50;73.70;;;;;;4226369;28;19930;-66
2023/02/20 06:34:41;;;;;;;;;;;16.60;73.40;;;;;;4226101;28;20386;-67
2023/02/20 06:37:21;;;;;;;;;;;16.70;73.10;;;;;;4226617;28;19926;-67
2023/02/20 06:40:03;;;;;;;;;;;16.70;72.70;;;;;;4226630;28;19984;-66
2023/02/20 06:42:46;;;;;;;;;;;16.70;72.70;;;;;;4223510;28;19931;-66
2023/02/20 06:45:26;;;;;;;;;;;16.70;72.80;;;;;;4225230;28;20041;-65
2023/02/20 06:48:07;;;;;;;;;;;16.70;73.10;;;;;;4225414;28;19931;-64
2023/02/20 06:50:48;;;;;;;;;;;16.60;73.40;;;;;;4223383;28;19927;-66
2023/02/20 06:53:29;;;;;;;;;;;16.60;73.40;;;;;;4224864;27;20030;-66
2023/02/20 06:56:10;;;;;;;;;;;16.60;73.60;;;;;;4225957;28;19942;-64
2023/02/20 06:58:53;;;;;;;;;;;16.60;73.50;;;;;;4211027;28;19926;-64
2023/02/20 07:01:38;;;;;;;;;;;16.60;73.60;;;;;;4225644;28;19931;-66
2023/02/20 07:04:20;;;;;;;;;;;16.60;74.00;;;;;;4209507;28;19927;-66
2023/02/20 07:07:01;;;;;;;;;;;16.60;74.60;;;;;;4221578;28;19941;-65
2023/02/20 07:09:42;;;;;;;;;;;16.50;75.60;;;;;;4226330;28;19934;-65
2023/02/20 07:12:24;;;;;;;;;;;16.50;75.00;;;;;;4226099;28;19927;-65
2023/02/20 07:15:07;;;;;;;;;;;16.50;75.30;;;;;;4219787;28;19934;-65
2023/02/20 07:17:48;;;;;;;;;;;16.50;75.20;;;;;;4225856;28;20372;-66
2023/02/20 07:20:28;;;;;;;;;;;16.60;74.80;;;;;;4228096;28;19926;-66
2023/02/20 07:23:09;;;;;;;;;;;16.60;74.50;;;;;;4227067;27;19930;-66
2023/02/20 07:25:50;;;;;;;;;;;16.70;74.40;;;;;;4216551;27;19950;-67
2023/02/20 07:28:33;;;;;;;;;;;16.80;74.00;;;;;;4228207;27;19927;-66
2023/02/20 07:31:15;;;;;;;;;;;16.80;73.70;;;;;;4226108;27;19930;-66
2023/02/20 07:33:57;;;;;;;;;;;16.80;73.40;;;;;;4225136;27;19926;-67
2023/02/20 07:36:37;;;;;;;;;;;16.80;73.40;;;;;;4225673;27;19929;-63
2023/02/20 07:39:18;;;;;;;;;;;16.80;72.80;;;;;;4217682;28;19926;-66
2023/02/20 07:41:58;;;;;;;;;;;16.70;72.70;;;;;;4212580;28;19927;-66
2023/02/20 07:44:51;;;;;;;;;;;16.70;72.60;;;;;;4210913;28;20062;-65
2023/02/20 07:47:32;;;;;;;;;;;16.70;72.40;;;;;;4212456;28;19943;-66
2023/02/20 07:50:13;;;;;;;;;;;16.80;72.20;;;;;;4210824;28;19927;-66
2023/02/20 07:52:54;;;;;;;;;;;16.80;72.80;;;;;;4214196;28;19927;-66
2023/02/20 07:55:35;;;;;;;;;;;16.80;71.60;;;;;;4229359;27;19931;-67
2023/02/20 07:58:15;;;;;;;;;;;16.80;71.60;;;;;;4229215;27;19968;-66
2023/02/20 08:00:56;;;;;;;;;;;16.70;71.80;;;;;;4212512;28;20469;-66
2023/02/20 08:03:38;;;;;;;;;;;16.70;72.70;;;;;;4212290;28;20358;-66
2023/02/20 08:06:19;;;;;;;;;;;16.80;71.60;;;;;;4212119;28;19927;-66
2023/02/20 08:09:00;;;;;;;;;;;16.80;71.30;;;;;;4212663;28;19926;-67
2023/02/20 08:11:40;;;;;;;;;;;16.80;71.10;;;;;;4212184;28;20016;-66
2023/02/20 08:14:21;;;;;;;;;;;16.80;71.00;;;;;;4211870;28;19927;-66
2023/02/20 08:17:02;;;;;;;;;;;16.80;71.10;;;;;;4211541;28;20467;-64
2023/02/20 08:19:44;;;;;;;;;;;16.70;71.40;;;;;;4224709;27;19926;-64
2023/02/20 08:22:24;;;;;;;;;;;16.60;71.60;;;;;;4227934;27;19946;-67
2023/02/20 08:25:20;;;;;;;;;;;16.50;71.80;;;;;;4227723;27;19927;-65
2023/02/20 08:28:01;;;;;;;;;;;16.50;72.20;;;;;;4221469;27;19934;-64
2023/02/20 08:30:42;;;;;;;;;;;16.40;72.40;;;;;;4227306;27;19931;-71
2023/02/20 08:33:22;;;;;;;;;;;16.30;72.90;;;;;;4212909;28;20274;-65
2023/02/20 08:36:05;;;;;;;;;;;16.30;73.00;;;;;;4228414;27;19994;-65
2023/02/20 08:38:46;;;;;;;;;;;16.40;72.90;;;;;;4226966;27;20504;-66
2023/02/20 08:41:26;;;;;;;;;;;16.30;73.00;;;;;;4228344;28;19927;-67
2023/02/20 08:44:08;;;;;;;;;;;16.40;73.00;;;;;;4228256;28;20116;-66
2023/02/20 08:46:49;;;;;;;;;;;16.40;73.80;;;;;;4228251;28;19935;-66
2023/02/20 08:49:29;;;;;;;;;;;16.50;72.60;;;;;;4215281;28;19930;-66
2023/02/20 08:52:13;;;;;;;;;;;16.50;72.40;;;;;;4216459;28;19942;-65
2023/02/20 08:54:54;;;;;;;;;;;16.60;72.30;;;;;;4225364;27;19978;-67
2023/02/20 08:57:35;;;;;;;;;;;16.50;72.20;;;;;;4226141;27;20483;-66
2023/02/20 09:00:17;;;;;;;;;;;16.50;72.10;;;;;;4227336;27;20049;-66
2023/02/20 09:02:58;;;;;;;;;;;16.50;72.20;;;;;;4222988;27;20440;-66
2023/02/20 09:05:40;;;;;;;;;;;16.50;72.10;;;;;;4223487;27;19929;-66
2023/02/20 09:08:22;;;;;;;;;;;16.50;72.20;;;;;;4222906;27;19926;-65
2023/02/20 09:11:03;;;;;;;;;;;16.50;72.30;;;;;;4210165;28;19931;-65
2023/02/20 09:13:44;;;;;;;;;;;16.50;72.50;;;;;;4209621;28;19943;-64
2023/02/20 09:16:26;;;;;;;;;;;16.50;72.50;;;;;;4214870;28;19927;-65
2023/02/20 09:19:07;;;;;;;;;;;16.50;72.50;;;;;;4211214;28;20282;-65
2023/02/20 09:21:48;;;;;;;;;;;16.60;72.90;;;;;;4212873;28;19931;-64
2023/02/20 09:24:33;;;;;;;;;;;16.60;72.80;;;;;;4221559;28;19927;-66
2023/02/20 09:27:14;;;;;;;;;;;16.70;72.40;;;;;;4224133;27;19968;-65
2023/02/20 09:29:54;;;;;;;;;;;16.80;71.80;;;;;;4220657;28;20029;-65
2023/02/20 09:32:35;;;;;;;;;;;16.80;71.50;;;;;;4227128;27;20016;-65
2023/02/20 09:35:17;;;;;;;;;;;16.90;72.20;;;;;;4210585;28;20077;-65
2023/02/20 09:37:58;;;;;;;;;;;16.80;71.20;;;;;;4217476;28;19942;-65
2023/02/20 09:40:40;;;;;;;;;;;16.80;71.40;;;;;;4215369;27;20402;-65
2023/02/20 09:43:26;;;;;;;;;;;16.90;71.20;;;;;;4216496;28;20369;-65
2023/02/20 09:46:10;;;;;;;;;;;16.90;70.90;;;;;;4210017;28;19927;-66
2023/02/20 09:48:58;;;;;;;;;;;16.90;71.60;;;;;;4224597;28;19939;-66
2023/02/20 09:51:43;;;;;;;;;;;16.90;70.60;;;;;;4212298;27;20067;-65
2023/02/20 09:54:27;;;;;;;;;;;16.90;70.70;;;;;;4218865;27;19931;-64
2023/02/20 09:57:13;;;;;;;;;;;16.90;70.70;;;;;;4220763;28;20374;-68
2023/02/20 09:59:55;;;;;;;;;;;16.80;70.90;;;;;;4210297;28;19931;-67
2023/02/20 10:02:39;;;;;;;;;;;16.70;71.20;;;;;;4222149;27;19930;-67
2023/02/20 10:05:22;;;;;;;;;;;16.80;71.20;;;;;;4213754;28;19964;-66
2023/02/20 10:08:03;;;;;;;;;;;16.80;71.10;;;;;;4225686;27;19930;-66
2023/02/20 10:10:43;;;;;;;;;;;16.80;70.80;;;;;;4216122;28;20278;-68
2023/02/20 10:13:41;;;;;;;;;;;16.80;70.90;;;;;;4223082;28;20401;-68
2023/02/20 10:16:28;;;;;;;;;;;16.70;71.00;;;;;;4209682;28;19931;-68
2023/02/20 10:19:16;;;;;;;;;;;16.60;71.20;;;;;;4221284;27;20898;-68
2023/02/20 10:22:02;;;;;;;;;;;16.60;71.40;;;;;;4233317;27;19937;-69
2023/02/20 10:24:47;;;;;;;;;;;16.50;71.60;;;;;;4223646;27;19930;-65
2023/02/20 10:27:32;;;;;;;;;;;16.40;71.90;;;;;;4226578;27;19931;-68
2023/02/20 10:30:20;;;;;;;;;;;16.40;72.10;;;;;;4224537;27;19934;-67
2023/02/20 10:33:03;;;;;;;;;;;16.30;72.30;;;;;;4232432;27;19990;-67
2023/02/20 10:35:47;;;;;;;;;;;16.20;72.60;;;;;;4233103;27;20921;-65
2023/02/20 10:38:30;;;;;;;;;;;16.20;72.90;;;;;;4224863;27;19927;-67
2023/02/20 10:41:15;;;;;;;;;;;16.10;73.10;;;;;;4226100;27;19930;-66
2023/02/20 10:43:59;;;;;;;;;;;16.00;73.50;;;;;;4235576;27;19999;-67
2023/02/20 10:46:44;;;;;;;;;;;16.00;74.60;;;;;;4227805;27;20009;-67
2023/02/20 10:49:33;;;;;;;;;;;15.90;74.10;;;;;;4228380;27;19929;-68
2023/02/20 10:52:17;;;;;;;;;;;15.90;74.30;;;;;;4227739;27;19938;-67
2023/02/20 10:55:15;;;;;;;;;;;16.00;74.40;;;;;;4222246;27;19926;-67
2023/02/20 10:57:57;;;;;;;;;;;16.00;74.10;;;;;;4217844;27;19930;-67
2023/02/20 11:00:41;;;;;;;;;;;16.10;73.90;;;;;;4240761;27;20004;-66
2023/02/20 11:03:25;;;;;;;;;;;16.10;73.70;;;;;;4233066;27;19926;-67
2023/02/20 11:06:07;;;;;;;;;;;16.10;73.60;;;;;;4230871;27;20000;-67
2023/02/20 11:08:48;;;;;;;;;;;16.20;73.80;;;;;;4239214;27;19937;-66
2023/02/20 11:11:31;;;;;;;;;;;16.20;73.70;;;;;;4238925;27;20027;-67
2023/02/20 11:16:30;;;;;;;8.70;4.10;;;16.20;72.70;;;;;;4237340;27;20382;-67
2023/02/20 11:19:17;;;;;;;7.45;3.53;;;16.30;73.50;;;;;;4217797;28;20063;-65
2023/02/20 11:21:59;;;;;;;7.47;4.00;;;16.30;73.50;;;;;;4219955;28;20067;-65
2023/02/20 11:24:41;;;;;;;8.73;3.30;;;16.30;73.60;;;;;;4210400;28;20074;-65
2023/02/20 11:27:23;;;;;;;8.60;4.05;;;16.20;73.60;;;;;;4203863;28;20055;-64
2023/02/20 11:30:22;;;;;;;8.35;3.60;;;16.20;73.70;;;;;;4209256;28;20108;-66
2023/02/20 11:33:11;;;;;;;8.40;3.45;;;16.10;73.90;;;;;;4218696;28;20178;-64
2023/02/20 11:35:56;;;;;;;8.20;4.18;;;16.10;74.30;;;;;;4219762;28;20063;-64
2023/02/20 11:38:38;;;;;;;6.03;3.38;;;16.10;74.50;;;;;;4219891;28;20055;-63
2023/02/20 11:41:27;;;;;;;6.15;4.03;;;16.00;74.40;;;;;;4215983;28;20071;-62
2023/02/20 11:44:24;;;;;;;6.95;3.60;;;16.00;74.70;;;;;;4204888;28;20047;-63
2023/02/20 11:47:23;;;;;;;6.15;3.30;;;15.90;75.00;;;;;;4213944;28;20506;-63
2023/02/20 11:50:17;;;;;;;5.88;3.17;;;15.80;75.10;;;;;;4218243;28;20068;-64
2023/02/20 11:53:04;;;;;;;10.65;3.42;;;15.80;75.30;;;;;;4215396;28;20132;-63
2023/02/20 11:55:45;;;;;;;11.77;3.75;;;15.80;75.60;;;;;;4204388;28;20403;-64
2023/02/20 11:58:40;;;;;;;8.85;3.40;;;15.70;75.60;;;;;;4192501;28;20097;-64
2023/02/20 12:01:31;;;;;;;8.93;4.32;;;15.70;75.90;;;;;;4206229;28;20093;-63
2023/02/20 12:04:20;;;;;;;9.52;4.25;;;15.60;75.90;;;;;;4219760;28;20120;-63
2023/02/20 12:07:18;;;;;;;14.10;4.07;;;15.60;76.10;;;;;;4219479;28;20050;-63
2023/02/20 12:10:04;;;;;;;5.60;3.63;;;15.60;76.20;;;;;;4217608;28;20058;-64
2023/02/20 12:12:45;;;;;;;8.68;4.32;;;15.50;76.40;;;;;;4215775;28;20055;-64
2023/02/20 12:15:28;;;;;;;10.65;3.35;;;15.50;76.50;;;;;;4216437;28;20058;-65
2023/02/20 12:18:34;;;;;;;10.85;3.90;;;15.50;76.70;;;;;;4211472;28;20490;-65
2023/02/20 12:21:28;;;;;;;5.55;3.63;;;15.40;76.60;;;;;;4202610;28;20117;-65
2023/02/20 12:24:27;;;;;;;9.25;3.58;;;15.40;76.80;;;;;;4211038;28;20063;-65
2023/02/20 12:27:26;;;;;;;7.25;3.85;;;15.40;76.90;;;;;;4210806;28;20121;-64
2023/02/20 12:30:20;;;;;;;8.48;3.67;;;15.40;77.10;;;;;;4200526;28;20048;-62
2023/02/20 12:33:16;;;;;;;11.48;4.22;;;15.40;77.10;;;;;;4194232;28;20055;-62
2023/02/20 12:36:05;;;;;;;7.82;3.50;;;15.40;77.30;;;;;;4197541;28;20066;-62
2023/02/20 12:38:49;;;;;;;8.30;3.42;;;15.30;77.20;;;;;;4192425;28;20125;-63
2023/02/20 12:41:44;;;;;;;10.80;4.32;;;15.30;77.40;;;;;;4192476;28;20105;-64
2023/02/20 12:44:49;;;;;;;8.15;3.05;;;15.30;77.50;;;;;;4199664;28;20395;-65
2023/02/20 12:47:32;;;;;;;6.22;2.70;;;15.30;77.50;;;;;;4207324;28;20063;-65
2023/02/20 12:50:33;;;;;;;10.23;3.20;;;15.30;77.70;;;;;;4206048;28;20060;-63
2023/02/20 12:53:20;;;;;;;;;;;15.30;77.90;;;;;;4197319;28;20137;-63
2023/02/20 12:56:11;;;;;;;5.47;3.15;;;15.30;78.40;;;;;;4205044;28;19927;-63
2023/02/20 12:59:00;;;;;;;4.68;3.33;;;15.30;78.40;;;;;;4194726;28;20411;-63
2023/02/20 13:01:41;;;;;;;10.35;3.88;;;15.30;78.20;;;;;;4206382;28;20055;-62
2023/02/20 13:04:28;;;;;;;6.68;4.00;;;15.30;78.20;;;;;;4207275;28;20051;-62
2023/02/20 13:07:16;;;;;;;9.35;3.83;;;15.30;78.20;;;;;;4206927;28;20074;-63
2023/02/20 13:10:03;;;;;;;10.38;4.22;;;15.30;78.10;;;;;;4205532;28;20046;-64
2023/02/20 13:12:44;;;;;;;12.27;3.90;;;15.20;78.00;;;;;;4203568;28;20155;-65
2023/02/20 13:15:38;;;;;;;11.68;3.92;;;15.20;78.20;;;;;;4204139;28;20055;-64
2023/02/20 13:18:25;;;;;;;8.35;4.10;;;15.20;78.40;;;;;;4200870;28;20059;-64
2023/02/20 13:21:10;;;;;;;6.47;3.40;;;15.20;78.50;;;;;;4197476;28;20060;-64
2023/02/20 13:23:52;;;;;;;10.73;3.88;;;15.20;78.40;;;;;;4191817;28;20071;-64
2023/02/20 13:26:51;;;;;;;;;;;15.20;78.50;;;;;;4207343;28;20059;-64
2023/02/20 13:29:33;;;;;;;8.88;3.47;;;15.20;78.50;;;;;;4205907;28;19935;-64
2023/02/20 13:32:28;;;;;;;8.60;3.90;;;15.20;78.70;;;;;;4194690;28;20106;-65
2023/02/20 13:35:35;;;;;;;9.20;3.55;;;15.20;78.80;;;;;;4193778;28;20090;-64
2023/02/20 13:38:19;;;;;;;10.48;2.95;;;15.20;78.80;;;;;;4190145;28;20059;-65
2023/02/20 13:41:06;;;;;;;6.85;3.58;;;15.10;78.90;;;;;;4197849;28;20186;-64
2023/02/20 13:43:47;;;;;;;7.78;3.10;;;15.20;79.20;;;;;;4201296;28;20120;-66
2023/02/20 13:46:29;;;;;;;7.35;3.53;;;15.20;79.20;;;;;;4197244;28;20051;-64
2023/02/20 13:49:11;;;;;;;8.15;3.72;;;15.30;79.10;;;;;;4196895;28;20194;-64
2023/02/20 13:51:52;;;;;;;9.38;3.97;;;15.40;78.90;;;;;;4190654;28;20052;-65
2023/02/20 13:54:34;;;;;;;4.97;2.75;;;15.40;78.60;;;;;;4190051;28;20499;-65
2023/02/20 13:57:17;;;;;;;;;;;15.50;78.40;;;;;;4193399;28;20133;-64
2023/02/20 13:59:58;;;;;;;7.43;4.25;;;15.50;78.10;;;;;;4193360;28;20033;-65
2023/02/20 14:02:41;;;;;;;6.77;3.57;;;15.50;78.00;;;;;;4203348;28;20060;-65
2023/02/20 14:05:27;;;;;;;11.95;3.42;;;15.50;78.00;;;;;;4205544;28;20818;-64
2023/02/20 14:08:16;;;;;;;6.47;3.15;;;15.50;78.00;;;;;;4205260;28;20131;-63
2023/02/20 14:11:05;;;;;;;8.52;4.00;;;15.50;78.20;;;;;;4200207;28;20186;-63
2023/02/20 14:13:47;;;;;;;9.07;3.55;;;15.60;78.40;;;;;;4201900;28;20096;-64
2023/02/20 14:16:31;;;;;;;5.65;3.28;;;15.60;78.20;;;;;;4204771;28;20498;-63
2023/02/20 14:19:18;;;;;;;9.18;4.28;;;15.70;77.70;;;;;;4198944;28;20047;-63
2023/02/20 14:22:35;;;;;;;10.63;4.28;;;15.80;77.20;;;;;;4192616;28;20062;-63
2023/02/20 14:25:28;;;;;;;7.43;4.32;;;15.80;77.00;;;;;;4203305;28;20059;-63
2023/02/20 14:28:14;;;;;;;8.20;2.97;;;15.90;77.10;;;;;;4196760;28;20074;-63
2023/02/20 14:31:22;;;;;;;5.32;3.30;;;15.80;77.00;;;;;;4191838;28;20083;-63
2023/02/20 14:34:09;;;;;;;7.05;3.58;;;15.80;76.90;;;;;;4199743;28;20105;-64
2023/02/20 14:37:01;;;;;;;5.32;3.38;;;15.80;76.90;;;;;;4195511;28;20201;-63
2023/02/20 14:39:54;;;;;;;7.07;3.40;;;15.80;76.90;;;;;;4200811;28;20132;-63
2023/02/20 14:42:39;;;;;;;9.88;3.65;;;15.70;77.00;;;;;;4202052;28;20132;-64
2023/02/20 14:45:25;;;;;;;7.25;3.28;;;15.70;77.10;;;;;;4190549;28;20222;-63
2023/02/20 14:48:17;;;;;;;9.43;3.80;;;15.70;77.30;;;;;;4203220;28;20181;-63
2023/02/20 14:51:23;;;;;;;8.07;3.17;;;15.60;77.40;;;;;;4194411;28;20469;-63
2023/02/20 14:54:18;;;;;;;10.82;4.47;;;15.60;77.40;;;;;;4198806;28;20071;-62
2023/02/20 14:57:02;;;;;;;13.82;3.85;;;15.60;77.50;;;;;;4198716;28;20461;-63
2023/02/20 14:59:44;;;;;;;10.45;4.10;;;15.50;77.70;;;;;;4195508;28;20224;-63
2023/02/20 15:02:28;;;;;;;9.63;3.42;;;15.50;77.80;;;;;;4198596;28;20150;-63
2023/02/20 15:05:19;;;;;;;9.63;3.17;;;15.50;78.00;;;;;;4196989;28;20059;-62
2023/02/20 15:08:02;;;;;;;12.32;4.10;;;15.50;78.40;;;;;;4196094;28;20043;-63
2023/02/20 15:10:47;;;;;;;8.25;3.90;;;15.50;78.20;;;;;;4203384;28;20051;-63
2023/02/20 15:13:34;;;;;;;9.38;4.20;;;15.40;78.40;;;;;;4204341;28;20051;-63
2023/02/20 15:16:22;;;;;;;8.63;4.00;;;15.40;78.50;;;;;;4201696;28;20051;-63
2023/02/20 15:19:03;;;;;;;8.70;3.35;;;15.40;78.70;;;;;;4196319;28;20097;-63
2023/02/20 15:21:44;;;;;;;10.13;3.85;;;15.40;78.80;;;;;;4189760;28;20098;-63
2023/02/20 15:24:37;;;;;;;8.90;3.70;;;15.40;79.00;;;;;;4188442;28;20055;-63
2023/02/20 15:27:22;;;;;;;6.50;3.17;;;15.30;78.90;;;;;;4190616;28;20063;-62
2023/02/20 15:30:13;;;;;;;9.15;3.67;;;15.30;79.30;;;;;;4202413;28;20074;-62
2023/02/20 15:32:57;;;;;;;;;;;15.30;79.20;;;;;;4202268;28;20063;-63
2023/02/20 15:35:38;;;;;;;9.00;3.25;;;15.30;79.30;;;;;;4204006;28;20341;-63
2023/02/20 15:38:19;;;;;;;9.23;3.40;;;15.30;79.50;;;;;;4195664;28;20068;-63
2023/02/20 15:41:02;;;;;;;9.07;3.75;;;15.30;79.60;;;;;;4202539;28;20745;-63
2023/02/20 15:43:43;;;;;;;12.95;4.25;;;15.30;79.50;;;;;;4198258;28;20055;-63
2023/02/20 15:46:29;;;;;;;6.40;3.78;;;15.30;79.30;;;;;;4196157;28;20059;-63